CGRYT PANC-CYYE
Flight info
| Callsign | CGRYT |
|---|---|
| Flight time | 2h 33m |
| Altitude | 29000 |
| Route | NOEND DCT YXY J515 YYE |
| Aircraft | TBM9/L-SDFGRWY/S |
Departure
| Time | 2026-04-24 11:42 |
|---|---|
| Airport | Ted Stevens Anchorage International Airport (PANC) |
Arrival
| Time | 2026-04-24 14:15 |
|---|---|
| Airport | Fort Nelson Airport (CYYE) |
| Time | Latitude | Longitude | Altitude | Speed | Heading |
|---|---|---|---|---|---|
| 2026-04-24 11:27 | 61.16445 | -149.98272 | 121 ft | 0 kts | 184° |
| 2026-04-24 11:35 | 61.16440 | -149.98276 | 120 ft | 3 kts | 209° |
| 2026-04-24 11:35 | 61.16424 | -149.98335 | 121 ft | 6 kts | 249° |
| 2026-04-24 11:35 | 61.16458 | -149.98405 | 119 ft | 11 kts | 333° |
| 2026-04-24 11:35 | 61.16546 | -149.98464 | 114 ft | 14 kts | 350° |
| 2026-04-24 11:36 | 61.16626 | -149.98381 | 111 ft | 13 kts | 30° |
| 2026-04-24 11:36 | 61.16695 | -149.98381 | 109 ft | 0 kts | 345° |
| 2026-04-24 11:40 | 61.16720 | -149.98399 | 109 ft | 8 kts | 338° |
| 2026-04-24 11:40 | 61.16779 | -149.98435 | 109 ft | 8 kts | 353° |
| 2026-04-24 11:41 | 61.16789 | -149.98575 | 109 ft | 25 kts | 267° |
| 2026-04-24 11:41 | 61.16788 | -149.99364 | 115 ft | 85 kts | 268° |
| 2026-04-24 11:41 | 61.16815 | -150.00897 | 287 ft | 116 kts | 264° |
| 2026-04-24 11:41 | 61.16832 | -150.02520 | 736 ft | 116 kts | 262° |
| 2026-04-24 11:42 | 61.16828 | -150.04271 | 1090 ft | 127 kts | 260° |
| 2026-04-24 11:42 | 61.16804 | -150.06190 | 1461 ft | 139 kts | 260° |
| 2026-04-24 11:42 | 61.16759 | -150.08273 | 1891 ft | 151 kts | 259° |
| 2026-04-24 11:42 | 61.16670 | -150.10567 | 2244 ft | 166 kts | 261° |
| 2026-04-24 11:43 | 61.16570 | -150.13065 | 2580 ft | 182 kts | 264° |
| 2026-04-24 11:43 | 61.16486 | -150.15706 | 3091 ft | 182 kts | 266° |
| 2026-04-24 11:43 | 61.16423 | -150.18317 | 3616 ft | 184 kts | 267° |
| 2026-04-24 11:43 | 61.16376 | -150.20989 | 4097 ft | 187 kts | 268° |
| 2026-04-24 11:44 | 61.16398 | -150.23697 | 4586 ft | 189 kts | 277° |
| 2026-04-24 11:44 | 61.16667 | -150.26391 | 5045 ft | 193 kts | 278° |
| 2026-04-24 11:44 | 61.16747 | -150.29147 | 5544 ft | 193 kts | 268° |
| 2026-04-24 11:44 | 61.16696 | -150.31943 | 6046 ft | 196 kts | 265° |
| 2026-04-24 11:45 | 61.16654 | -150.34801 | 6513 ft | 200 kts | 265° |
| 2026-04-24 11:45 | 61.16586 | -150.37675 | 6998 ft | 202 kts | 263° |
| 2026-04-24 11:45 | 61.16564 | -150.40607 | 7491 ft | 202 kts | 264° |
| 2026-04-24 11:45 | 61.16546 | -150.43554 | 7939 ft | 206 kts | 265° |
| 2026-04-24 11:46 | 61.16579 | -150.46533 | 8374 ft | 211 kts | 276° |
| 2026-04-24 11:46 | 61.17015 | -150.49461 | 8833 ft | 214 kts | 287° |
| 2026-04-24 11:46 | 61.17558 | -150.52319 | 9354 ft | 211 kts | 288° |
| 2026-04-24 11:46 | 61.18267 | -150.55033 | 9680 ft | 224 kts | 304° |
| 2026-04-24 11:47 | 61.19438 | -150.57125 | 10071 ft | 228 kts | 332° |
| 2026-04-24 11:47 | 61.20962 | -150.57711 | 10486 ft | 225 kts | 13° |
| 2026-04-24 11:47 | 61.22347 | -150.56418 | 10862 ft | 215 kts | 51° |
| 2026-04-24 11:47 | 61.23116 | -150.53906 | 11233 ft | 200 kts | 85° |
| 2026-04-24 11:48 | 61.23155 | -150.51177 | 11676 ft | 185 kts | 107° |
| 2026-04-24 11:48 | 61.22978 | -150.48523 | 12102 ft | 187 kts | 109° |
| 2026-04-24 11:48 | 61.22823 | -150.45834 | 12533 ft | 189 kts | 108° |
| 2026-04-24 11:48 | 61.22704 | -150.43088 | 12925 ft | 193 kts | 107° |
| 2026-04-24 11:49 | 61.22594 | -150.40295 | 13345 ft | 195 kts | 107° |
| 2026-04-24 11:49 | 61.22480 | -150.37457 | 13746 ft | 199 kts | 107° |
| 2026-04-24 11:49 | 61.22360 | -150.34579 | 14150 ft | 201 kts | 107° |
| 2026-04-24 11:49 | 61.22240 | -150.31660 | 14547 ft | 204 kts | 107° |
| 2026-04-24 11:50 | 61.22119 | -150.28705 | 14941 ft | 207 kts | 107° |
| 2026-04-24 11:50 | 61.21986 | -150.25721 | 15341 ft | 209 kts | 108° |
| 2026-04-24 11:50 | 61.21845 | -150.22689 | 15727 ft | 212 kts | 108° |
| 2026-04-24 11:50 | 61.21719 | -150.19648 | 16121 ft | 216 kts | 108° |
| 2026-04-24 11:51 | 61.21594 | -150.16522 | 16517 ft | 219 kts | 108° |
| 2026-04-24 11:51 | 61.21466 | -150.13352 | 16915 ft | 221 kts | 108° |
| 2026-04-24 11:51 | 61.21330 | -150.10154 | 17298 ft | 224 kts | 108° |
| 2026-04-24 11:51 | 61.21190 | -150.06908 | 17657 ft | 227 kts | 108° |
| 2026-04-24 11:52 | 61.21049 | -150.03620 | 18029 ft | 230 kts | 108° |
| 2026-04-24 11:52 | 61.20906 | -150.00292 | 18411 ft | 233 kts | 108° |
| 2026-04-24 11:52 | 61.20758 | -149.96939 | 18783 ft | 235 kts | 109° |
| 2026-04-24 11:52 | 61.20605 | -149.93521 | 19125 ft | 240 kts | 109° |
| 2026-04-24 11:53 | 61.20453 | -149.90057 | 19501 ft | 242 kts | 109° |
| 2026-04-24 11:53 | 61.20301 | -149.86609 | 19891 ft | 243 kts | 109° |
| 2026-04-24 11:53 | 61.20144 | -149.83094 | 20259 ft | 246 kts | 109° |
| 2026-04-24 11:53 | 61.19985 | -149.79544 | 20622 ft | 248 kts | 109° |
| 2026-04-24 11:54 | 61.19823 | -149.75977 | 20994 ft | 249 kts | 110° |
| 2026-04-24 11:54 | 61.19660 | -149.72390 | 21357 ft | 251 kts | 109° |
| 2026-04-24 11:54 | 61.19495 | -149.68775 | 21694 ft | 253 kts | 110° |
| 2026-04-24 11:54 | 61.19327 | -149.65116 | 22053 ft | 255 kts | 110° |
| 2026-04-24 11:55 | 61.19158 | -149.61443 | 22422 ft | 256 kts | 110° |
| 2026-04-24 11:55 | 61.18985 | -149.57751 | 22779 ft | 258 kts | 110° |
| 2026-04-24 11:55 | 61.18807 | -149.54027 | 23163 ft | 260 kts | 111° |
| 2026-04-24 11:55 | 61.18634 | -149.50318 | 23584 ft | 263 kts | 111° |
| 2026-04-24 11:56 | 61.18456 | -149.46539 | 23920 ft | 264 kts | 111° |
| 2026-04-24 11:56 | 61.18275 | -149.42738 | 24291 ft | 266 kts | 111° |
| 2026-04-24 11:56 | 61.18091 | -149.38913 | 24556 ft | 267 kts | 111° |
| 2026-04-24 11:56 | 61.17897 | -149.35053 | 24890 ft | 271 kts | 110° |
| 2026-04-24 11:57 | 61.17707 | -149.31135 | 25296 ft | 274 kts | 110° |
| 2026-04-24 11:57 | 61.17521 | -149.27198 | 25600 ft | 276 kts | 111° |
| 2026-04-24 11:57 | 61.17323 | -149.23218 | 25781 ft | 278 kts | 111° |
| 2026-04-24 11:57 | 61.17130 | -149.19251 | 26008 ft | 277 kts | 111° |
| 2026-04-24 11:58 | 61.16934 | -149.15284 | 26097 ft | 276 kts | 111° |
| 2026-04-24 11:58 | 61.16731 | -149.11294 | 26436 ft | 280 kts | 110° |
| 2026-04-24 11:58 | 61.16526 | -149.07267 | 26795 ft | 283 kts | 110° |
| 2026-04-24 11:58 | 61.16322 | -149.03200 | 27097 ft | 285 kts | 110° |
| 2026-04-24 11:59 | 61.16115 | -148.99116 | 27455 ft | 286 kts | 110° |
| 2026-04-24 11:59 | 61.15903 | -148.94998 | 27758 ft | 288 kts | 110° |
| 2026-04-24 11:59 | 61.15689 | -148.90855 | 28047 ft | 291 kts | 110° |
| 2026-04-24 11:59 | 61.15473 | -148.86681 | 28306 ft | 292 kts | 110° |
| 2026-04-24 12:00 | 61.15254 | -148.82504 | 28619 ft | 293 kts | 110° |
| 2026-04-24 12:00 | 61.15033 | -148.78293 | 28899 ft | 295 kts | 110° |
| 2026-04-24 12:00 | 61.14809 | -148.74049 | 29142 ft | 299 kts | 110° |
| 2026-04-24 12:00 | 61.14567 | -148.69675 | 29147 ft | 312 kts | 109° |
| 2026-04-24 12:01 | 61.14072 | -148.60454 | 29160 ft | 331 kts | 108° |
| 2026-04-24 12:01 | 61.13552 | -148.50871 | 29146 ft | 340 kts | 109° |
| 2026-04-24 12:02 | 61.13392 | -148.40880 | 29149 ft | 354 kts | 100° |
| 2026-04-24 12:02 | 61.13488 | -148.30768 | 29148 ft | 352 kts | 101° |
| 2026-04-24 12:03 | 61.13589 | -148.20577 | 29134 ft | 354 kts | 101° |
| 2026-04-24 12:03 | 61.13679 | -148.10403 | 29138 ft | 353 kts | 101° |
| 2026-04-24 12:04 | 61.13760 | -148.00230 | 29134 ft | 353 kts | 101° |
| 2026-04-24 12:04 | 61.13834 | -147.90020 | 29116 ft | 356 kts | 100° |
| 2026-04-24 12:05 | 61.13902 | -147.79772 | 29110 ft | 356 kts | 100° |
| 2026-04-24 12:05 | 61.13960 | -147.69525 | 29094 ft | 356 kts | 100° |
| 2026-04-24 12:06 | 61.14011 | -147.59250 | 29095 ft | 357 kts | 99° |
| 2026-04-24 12:06 | 61.14055 | -147.49065 | 29196 ft | 356 kts | 100° |
| 2026-04-24 12:07 | 61.14094 | -147.38833 | 29227 ft | 354 kts | 100° |
| 2026-04-24 12:07 | 61.14116 | -147.28573 | 29218 ft | 355 kts | 100° |
| 2026-04-24 12:08 | 61.14142 | -147.18386 | 29246 ft | 354 kts | 100° |
| 2026-04-24 12:08 | 61.14149 | -147.08135 | 29272 ft | 358 kts | 100° |
| 2026-04-24 12:09 | 61.14158 | -146.97810 | 29290 ft | 359 kts | 100° |
| 2026-04-24 12:09 | 61.14153 | -146.87460 | 29307 ft | 360 kts | 100° |
| 2026-04-24 12:10 | 61.14143 | -146.77143 | 29325 ft | 361 kts | 100° |
| 2026-04-24 12:11 | 61.14111 | -146.61547 | 29343 ft | 361 kts | 100° |
| 2026-04-24 12:11 | 61.14081 | -146.51133 | 29353 ft | 362 kts | 100° |
| 2026-04-24 12:12 | 61.14041 | -146.40682 | 29364 ft | 363 kts | 100° |
| 2026-04-24 12:12 | 61.13998 | -146.30322 | 29376 ft | 364 kts | 99° |
| 2026-04-24 12:13 | 61.13939 | -146.19856 | 29371 ft | 363 kts | 100° |
| 2026-04-24 12:13 | 61.13876 | -146.09394 | 29370 ft | 363 kts | 100° |
| 2026-04-24 12:14 | 61.13818 | -146.00698 | 29369 ft | 364 kts | 100° |
| 2026-04-24 12:14 | 61.13746 | -145.88451 | 29355 ft | 367 kts | 98° |
| 2026-04-24 12:15 | 61.13641 | -145.79655 | 29356 ft | 366 kts | 101° |
| 2026-04-24 12:15 | 61.13555 | -145.69102 | 29349 ft | 367 kts | 98° |
| 2026-04-24 12:16 | 61.13456 | -145.58557 | 29341 ft | 366 kts | 100° |
| 2026-04-24 12:16 | 61.13341 | -145.48025 | 29340 ft | 366 kts | 99° |
| 2026-04-24 12:17 | 61.13225 | -145.37560 | 29354 ft | 365 kts | 99° |
| 2026-04-24 12:17 | 61.13096 | -145.27052 | 29356 ft | 366 kts | 99° |
| 2026-04-24 12:18 | 61.12962 | -145.16538 | 29352 ft | 366 kts | 99° |
| 2026-04-24 12:18 | 61.12818 | -145.05993 | 29285 ft | 366 kts | 99° |
| 2026-04-24 12:19 | 61.12662 | -144.95449 | 29284 ft | 367 kts | 99° |
| 2026-04-24 12:19 | 61.12510 | -144.84905 | 29280 ft | 365 kts | 99° |
| 2026-04-24 12:20 | 61.12329 | -144.74372 | 29270 ft | 367 kts | 99° |
| 2026-04-24 12:20 | 61.12160 | -144.63877 | 29268 ft | 366 kts | 99° |
| 2026-04-24 12:21 | 61.11972 | -144.53340 | 29272 ft | 367 kts | 99° |
| 2026-04-24 12:21 | 61.11779 | -144.42771 | 29269 ft | 367 kts | 99° |
| 2026-04-24 12:22 | 61.11576 | -144.32194 | 29273 ft | 368 kts | 99° |
| 2026-04-24 12:22 | 61.11365 | -144.21623 | 29270 ft | 367 kts | 99° |
| 2026-04-24 12:23 | 61.11149 | -144.11123 | 29265 ft | 368 kts | 99° |
| 2026-04-24 12:23 | 61.10921 | -144.00555 | 29259 ft | 367 kts | 99° |
| 2026-04-24 12:24 | 61.10684 | -143.89948 | 29264 ft | 370 kts | 98° |
| 2026-04-24 12:24 | 61.10440 | -143.79330 | 29257 ft | 369 kts | 99° |
| 2026-04-24 12:25 | 61.10185 | -143.68715 | 29260 ft | 370 kts | 99° |
| 2026-04-24 12:25 | 61.09929 | -143.58101 | 29253 ft | 370 kts | 99° |
| 2026-04-24 12:26 | 61.09656 | -143.47502 | 29264 ft | 369 kts | 99° |
| 2026-04-24 12:26 | 61.09381 | -143.36963 | 29262 ft | 370 kts | 99° |
| 2026-04-24 12:27 | 61.09093 | -143.26349 | 29265 ft | 370 kts | 99° |
| 2026-04-24 12:27 | 61.08800 | -143.15731 | 29264 ft | 370 kts | 99° |
| 2026-04-24 12:28 | 61.08495 | -143.05113 | 29257 ft | 370 kts | 99° |
| 2026-04-24 12:28 | 61.08185 | -142.94467 | 29250 ft | 371 kts | 99° |
| 2026-04-24 12:29 | 61.07862 | -142.83822 | 29252 ft | 372 kts | 99° |
| 2026-04-24 12:29 | 61.07533 | -142.73172 | 29255 ft | 372 kts | 98° |
| 2026-04-24 12:30 | 61.07197 | -142.62551 | 29257 ft | 371 kts | 98° |
| 2026-04-24 12:30 | 61.06851 | -142.51956 | 29256 ft | 372 kts | 98° |
| 2026-04-24 12:31 | 61.06497 | -142.41296 | 29257 ft | 372 kts | 98° |
| 2026-04-24 12:31 | 61.06132 | -142.30626 | 29256 ft | 372 kts | 98° |
| 2026-04-24 12:32 | 61.05760 | -142.19959 | 29256 ft | 373 kts | 98° |
| 2026-04-24 12:32 | 61.05378 | -142.09287 | 29258 ft | 372 kts | 98° |
| 2026-04-24 12:33 | 61.04989 | -141.98611 | 29258 ft | 374 kts | 98° |
| 2026-04-24 12:33 | 61.04622 | -141.88820 | 29259 ft | 374 kts | 98° |
| 2026-04-24 12:34 | 61.04271 | -141.79534 | 29278 ft | 373 kts | 98° |
| 2026-04-24 12:34 | 61.03859 | -141.68923 | 29278 ft | 373 kts | 98° |
| 2026-04-24 12:35 | 61.03440 | -141.58261 | 29281 ft | 373 kts | 98° |
| 2026-04-24 12:35 | 61.03006 | -141.47585 | 29286 ft | 373 kts | 97° |
| 2026-04-24 12:36 | 61.02570 | -141.36926 | 29301 ft | 373 kts | 98° |
| 2026-04-24 12:36 | 61.02122 | -141.26266 | 29289 ft | 372 kts | 98° |
| 2026-04-24 12:37 | 61.01668 | -141.15622 | 29293 ft | 373 kts | 98° |
| 2026-04-24 12:37 | 61.01204 | -141.04970 | 29305 ft | 373 kts | 98° |
| 2026-04-24 12:38 | 61.00732 | -140.94324 | 29309 ft | 373 kts | 98° |
| 2026-04-24 12:38 | 61.00251 | -140.83654 | 29308 ft | 373 kts | 98° |
| 2026-04-24 12:39 | 60.99267 | -140.62415 | 29318 ft | 373 kts | 97° |
| 2026-04-24 12:40 | 60.98763 | -140.51777 | 29318 ft | 373 kts | 97° |
| 2026-04-24 12:40 | 60.98245 | -140.41120 | 29314 ft | 374 kts | 97° |
| 2026-04-24 12:41 | 60.97722 | -140.30474 | 29322 ft | 374 kts | 98° |
| 2026-04-24 12:41 | 60.97196 | -140.19893 | 29322 ft | 374 kts | 98° |
| 2026-04-24 12:42 | 60.96652 | -140.09243 | 29328 ft | 374 kts | 98° |
| 2026-04-24 12:42 | 60.96106 | -139.98600 | 29322 ft | 373 kts | 98° |
| 2026-04-24 12:43 | 60.95547 | -139.87970 | 29325 ft | 373 kts | 97° |
| 2026-04-24 12:43 | 60.94985 | -139.77349 | 29334 ft | 374 kts | 97° |
| 2026-04-24 12:44 | 60.94412 | -139.66736 | 29338 ft | 372 kts | 97° |
| 2026-04-24 12:44 | 60.93830 | -139.56140 | 29358 ft | 373 kts | 97° |
| 2026-04-24 12:45 | 60.93242 | -139.45530 | 29354 ft | 373 kts | 98° |
| 2026-04-24 12:45 | 60.92643 | -139.34916 | 29350 ft | 373 kts | 98° |
| 2026-04-24 12:46 | 60.92039 | -139.24388 | 29360 ft | 373 kts | 98° |
| 2026-04-24 12:46 | 60.91426 | -139.13792 | 29365 ft | 373 kts | 98° |
| 2026-04-24 12:47 | 60.90807 | -139.03233 | 29363 ft | 373 kts | 98° |
| 2026-04-24 12:47 | 60.90174 | -138.92659 | 29364 ft | 373 kts | 98° |
| 2026-04-24 12:48 | 60.89537 | -138.82088 | 29358 ft | 372 kts | 98° |
| 2026-04-24 12:48 | 60.88891 | -138.71541 | 29365 ft | 373 kts | 98° |
| 2026-04-24 12:49 | 60.88236 | -138.60997 | 29366 ft | 372 kts | 98° |
| 2026-04-24 12:49 | 60.87576 | -138.50467 | 29369 ft | 372 kts | 98° |
| 2026-04-24 12:50 | 60.86904 | -138.39942 | 29373 ft | 372 kts | 98° |
| 2026-04-24 12:50 | 60.86231 | -138.29477 | 29372 ft | 372 kts | 98° |
| 2026-04-24 12:51 | 60.85546 | -138.18963 | 29377 ft | 371 kts | 98° |
| 2026-04-24 12:51 | 60.84850 | -138.08510 | 29376 ft | 370 kts | 98° |
| 2026-04-24 12:52 | 60.84152 | -137.98028 | 29315 ft | 370 kts | 98° |
| 2026-04-24 12:52 | 60.83443 | -137.87560 | 29315 ft | 370 kts | 98° |
| 2026-04-24 12:53 | 60.82725 | -137.77081 | 29311 ft | 371 kts | 98° |
| 2026-04-24 12:53 | 60.82003 | -137.66685 | 29313 ft | 372 kts | 98° |
| 2026-04-24 12:54 | 60.81270 | -137.56206 | 29313 ft | 372 kts | 98° |
| 2026-04-24 12:54 | 60.80525 | -137.45730 | 29313 ft | 372 kts | 98° |
| 2026-04-24 12:55 | 60.79776 | -137.35252 | 29302 ft | 372 kts | 98° |
| 2026-04-24 12:55 | 60.79017 | -137.24789 | 29304 ft | 372 kts | 98° |
| 2026-04-24 12:56 | 60.78247 | -137.14299 | 29303 ft | 372 kts | 98° |
| 2026-04-24 12:56 | 60.77469 | -137.03819 | 29296 ft | 373 kts | 98° |
| 2026-04-24 12:57 | 60.76680 | -136.93324 | 29294 ft | 372 kts | 98° |
| 2026-04-24 12:57 | 60.75889 | -136.82854 | 29295 ft | 372 kts | 98° |
| 2026-04-24 12:58 | 60.75085 | -136.72384 | 29292 ft | 372 kts | 98° |
| 2026-04-24 12:58 | 60.74279 | -136.61989 | 29288 ft | 372 kts | 98° |
| 2026-04-24 12:59 | 60.73464 | -136.51544 | 29279 ft | 373 kts | 98° |
| 2026-04-24 12:59 | 60.72636 | -136.41105 | 29283 ft | 372 kts | 98° |
| 2026-04-24 13:00 | 60.71805 | -136.30670 | 29299 ft | 372 kts | 98° |
| 2026-04-24 13:00 | 60.71105 | -136.22009 | 29301 ft | 372 kts | 98° |
| 2026-04-24 13:01 | 60.70258 | -136.11585 | 29302 ft | 372 kts | 98° |
| 2026-04-24 13:01 | 60.69401 | -136.01176 | 29302 ft | 372 kts | 98° |
| 2026-04-24 13:02 | 60.68537 | -135.90762 | 29293 ft | 372 kts | 98° |
| 2026-04-24 13:02 | 60.67664 | -135.80346 | 29292 ft | 372 kts | 98° |
| 2026-04-24 13:03 | 60.66782 | -135.69937 | 29291 ft | 373 kts | 98° |
| 2026-04-24 13:03 | 60.65892 | -135.59511 | 29284 ft | 373 kts | 98° |
| 2026-04-24 13:04 | 60.64991 | -135.49109 | 29280 ft | 372 kts | 98° |
| 2026-04-24 13:04 | 60.64080 | -135.38693 | 29281 ft | 374 kts | 98° |
| 2026-04-24 13:05 | 60.63171 | -135.28336 | 29280 ft | 374 kts | 98° |
| 2026-04-24 13:05 | 60.62246 | -135.17927 | 29275 ft | 374 kts | 98° |
| 2026-04-24 13:06 | 60.61496 | -135.07449 | 29272 ft | 373 kts | 94° |
| 2026-04-24 13:06 | 60.60860 | -134.96958 | 29272 ft | 373 kts | 94° |
| 2026-04-24 13:07 | 60.60208 | -134.86460 | 29272 ft | 373 kts | 94° |
| 2026-04-24 13:07 | 60.59553 | -134.75969 | 29272 ft | 374 kts | 94° |
| 2026-04-24 13:08 | 60.58886 | -134.65465 | 29271 ft | 374 kts | 94° |
| 2026-04-24 13:08 | 60.58217 | -134.55038 | 29270 ft | 374 kts | 94° |
| 2026-04-24 13:09 | 60.57193 | -134.39326 | 29287 ft | 373 kts | 94° |
| 2026-04-24 13:09 | 60.56497 | -134.28877 | 29289 ft | 373 kts | 94° |
| 2026-04-24 13:10 | 60.55798 | -134.18423 | 29281 ft | 371 kts | 95° |
| 2026-04-24 13:10 | 60.55091 | -134.08006 | 29300 ft | 372 kts | 94° |
| 2026-04-24 13:11 | 60.54376 | -133.97600 | 29302 ft | 372 kts | 95° |
| 2026-04-24 13:11 | 60.53658 | -133.87259 | 29309 ft | 372 kts | 94° |
| 2026-04-24 13:12 | 60.52924 | -133.76829 | 29310 ft | 373 kts | 94° |
| 2026-04-24 13:12 | 60.52182 | -133.66407 | 29316 ft | 373 kts | 94° |
| 2026-04-24 13:13 | 60.51433 | -133.55984 | 29315 ft | 373 kts | 94° |
| 2026-04-24 13:13 | 60.50677 | -133.45552 | 29316 ft | 373 kts | 94° |
| 2026-04-24 13:14 | 60.49913 | -133.35193 | 29318 ft | 373 kts | 94° |
| 2026-04-24 13:14 | 60.49139 | -133.24774 | 29324 ft | 374 kts | 94° |
| 2026-04-24 13:15 | 60.48354 | -133.14337 | 29325 ft | 373 kts | 94° |
| 2026-04-24 13:15 | 60.47568 | -133.03987 | 29327 ft | 374 kts | 94° |
| 2026-04-24 13:16 | 60.46769 | -132.93588 | 29325 ft | 374 kts | 94° |
| 2026-04-24 13:16 | 60.45962 | -132.83192 | 29322 ft | 373 kts | 94° |
| 2026-04-24 13:17 | 60.45150 | -132.72817 | 29322 ft | 372 kts | 94° |
| 2026-04-24 13:17 | 60.44329 | -132.62474 | 29324 ft | 372 kts | 94° |
| 2026-04-24 13:18 | 60.43503 | -132.52138 | 29324 ft | 371 kts | 94° |
| 2026-04-24 13:18 | 60.42667 | -132.41828 | 29324 ft | 371 kts | 94° |
| 2026-04-24 13:19 | 60.41828 | -132.31539 | 29324 ft | 369 kts | 94° |
| 2026-04-24 13:19 | 60.40989 | -132.21362 | 29323 ft | 369 kts | 94° |
| 2026-04-24 13:20 | 60.40135 | -132.11124 | 29331 ft | 369 kts | 94° |
| 2026-04-24 13:20 | 60.39274 | -132.00888 | 29321 ft | 369 kts | 94° |
| 2026-04-24 13:21 | 60.38408 | -131.90675 | 29325 ft | 368 kts | 94° |
| 2026-04-24 13:21 | 60.37532 | -131.80456 | 29328 ft | 368 kts | 94° |
| 2026-04-24 13:22 | 60.36646 | -131.70257 | 29323 ft | 369 kts | 94° |
| 2026-04-24 13:22 | 60.35762 | -131.60090 | 29331 ft | 370 kts | 94° |
| 2026-04-24 13:23 | 60.34855 | -131.49827 | 29319 ft | 371 kts | 94° |
| 2026-04-24 13:23 | 60.33944 | -131.39580 | 29317 ft | 371 kts | 94° |
| 2026-04-24 13:24 | 60.33021 | -131.29320 | 29318 ft | 372 kts | 94° |
| 2026-04-24 13:24 | 60.32092 | -131.19055 | 29318 ft | 372 kts | 94° |
| 2026-04-24 13:25 | 60.31151 | -131.08762 | 29317 ft | 373 kts | 94° |
| 2026-04-24 13:25 | 60.30208 | -130.98549 | 29314 ft | 372 kts | 94° |
| 2026-04-24 13:26 | 60.29252 | -130.88285 | 29314 ft | 373 kts | 94° |
| 2026-04-24 13:26 | 60.28287 | -130.77995 | 29322 ft | 373 kts | 94° |
| 2026-04-24 13:27 | 60.27312 | -130.67722 | 29318 ft | 372 kts | 94° |
| 2026-04-24 13:27 | 60.26332 | -130.57457 | 29314 ft | 373 kts | 94° |
| 2026-04-24 13:28 | 60.25352 | -130.47286 | 29317 ft | 373 kts | 94° |
| 2026-04-24 13:28 | 60.24356 | -130.37059 | 29308 ft | 371 kts | 94° |
| 2026-04-24 13:29 | 60.23358 | -130.26858 | 29314 ft | 372 kts | 94° |
| 2026-04-24 13:29 | 60.22345 | -130.16629 | 29313 ft | 372 kts | 94° |
| 2026-04-24 13:30 | 60.21328 | -130.06427 | 29315 ft | 372 kts | 94° |
| 2026-04-24 13:30 | 60.20303 | -129.96231 | 29315 ft | 372 kts | 94° |
| 2026-04-24 13:31 | 60.19274 | -129.86099 | 29316 ft | 372 kts | 94° |
| 2026-04-24 13:31 | 60.18235 | -129.75917 | 29314 ft | 372 kts | 94° |
| 2026-04-24 13:32 | 60.17186 | -129.65731 | 29314 ft | 372 kts | 94° |
| 2026-04-24 13:32 | 60.16125 | -129.55534 | 29315 ft | 372 kts | 94° |
| 2026-04-24 13:33 | 60.15060 | -129.45358 | 29314 ft | 372 kts | 94° |
| 2026-04-24 13:33 | 60.13986 | -129.35181 | 29314 ft | 372 kts | 94° |
| 2026-04-24 13:34 | 60.12906 | -129.25018 | 29316 ft | 373 kts | 94° |
| 2026-04-24 13:34 | 60.11815 | -129.14859 | 29314 ft | 372 kts | 94° |
| 2026-04-24 13:35 | 60.10720 | -129.04726 | 29315 ft | 372 kts | 94° |
| 2026-04-24 13:35 | 60.09619 | -128.94605 | 29315 ft | 371 kts | 94° |
| 2026-04-24 13:36 | 60.08446 | -128.84574 | 29315 ft | 375 kts | 101° |
| 2026-04-24 13:36 | 60.06686 | -128.74694 | 29317 ft | 376 kts | 102° |
| 2026-04-24 13:37 | 60.04955 | -128.64813 | 29317 ft | 376 kts | 102° |
| 2026-04-24 13:37 | 60.03189 | -128.54964 | 29317 ft | 375 kts | 102° |
| 2026-04-24 13:38 | 60.01437 | -128.45148 | 29316 ft | 375 kts | 102° |
| 2026-04-24 13:38 | 59.99673 | -128.35364 | 29317 ft | 374 kts | 102° |
| 2026-04-24 13:39 | 59.97920 | -128.25663 | 29317 ft | 373 kts | 102° |
| 2026-04-24 13:39 | 59.96149 | -128.15927 | 29317 ft | 373 kts | 102° |
| 2026-04-24 13:40 | 59.94369 | -128.06195 | 29317 ft | 373 kts | 102° |
| 2026-04-24 13:40 | 59.92582 | -127.96468 | 29317 ft | 373 kts | 102° |
| 2026-04-24 13:41 | 59.90789 | -127.86752 | 29317 ft | 374 kts | 102° |
| 2026-04-24 13:41 | 59.88986 | -127.77038 | 29317 ft | 374 kts | 102° |
| 2026-04-24 13:42 | 59.87189 | -127.67410 | 29315 ft | 372 kts | 102° |
| 2026-04-24 13:42 | 59.85376 | -127.57736 | 29313 ft | 374 kts | 102° |
| 2026-04-24 13:43 | 59.83552 | -127.48063 | 29313 ft | 373 kts | 102° |
| 2026-04-24 13:43 | 59.81719 | -127.38424 | 29316 ft | 374 kts | 103° |
| 2026-04-24 13:44 | 59.79683 | -127.28879 | 29319 ft | 376 kts | 107° |
| 2026-04-24 13:44 | 59.77515 | -127.19429 | 29316 ft | 374 kts | 105° |
| 2026-04-24 13:45 | 59.75416 | -127.09950 | 29328 ft | 376 kts | 106° |
| 2026-04-24 13:45 | 59.73268 | -127.00501 | 29330 ft | 375 kts | 105° |
| 2026-04-24 13:46 | 59.71136 | -126.91055 | 29323 ft | 376 kts | 105° |
| 2026-04-24 13:46 | 59.68981 | -126.81612 | 29326 ft | 376 kts | 105° |
| 2026-04-24 13:47 | 59.66841 | -126.72242 | 29333 ft | 376 kts | 105° |
| 2026-04-24 13:47 | 59.64671 | -126.62800 | 29335 ft | 377 kts | 105° |
| 2026-04-24 13:48 | 59.62496 | -126.53377 | 29331 ft | 376 kts | 105° |
| 2026-04-24 13:48 | 59.60686 | -126.45557 | 29345 ft | 377 kts | 105° |
| 2026-04-24 13:49 | 59.58140 | -126.34615 | 29346 ft | 377 kts | 105° |
| 2026-04-24 13:49 | 59.55941 | -126.25212 | 29343 ft | 378 kts | 105° |
| 2026-04-24 13:50 | 59.54091 | -126.17323 | 29345 ft | 378 kts | 105° |
| 2026-04-24 13:50 | 59.51890 | -126.07990 | 29344 ft | 378 kts | 105° |
| 2026-04-24 13:51 | 59.49668 | -125.98597 | 29358 ft | 378 kts | 105° |
| 2026-04-24 13:51 | 59.47439 | -125.89228 | 29354 ft | 377 kts | 106° |
| 2026-04-24 13:52 | 59.45213 | -125.79890 | 29355 ft | 377 kts | 106° |
| 2026-04-24 13:52 | 59.42976 | -125.70578 | 29358 ft | 376 kts | 106° |
| 2026-04-24 13:53 | 59.40744 | -125.61300 | 29362 ft | 375 kts | 107° |
| 2026-04-24 13:53 | 59.38507 | -125.52053 | 29361 ft | 375 kts | 107° |
| 2026-04-24 13:54 | 59.36271 | -125.42839 | 29361 ft | 373 kts | 107° |
| 2026-04-24 13:54 | 59.34035 | -125.33672 | 29361 ft | 372 kts | 107° |
| 2026-04-24 13:55 | 59.31812 | -125.24596 | 29362 ft | 372 kts | 108° |
| 2026-04-24 13:55 | 59.30687 | -125.20015 | 29093 ft | 374 kts | 108° |
| 2026-04-24 13:55 | 59.29562 | -125.15435 | 28626 ft | 374 kts | 108° |
| 2026-04-24 13:56 | 59.28433 | -125.10852 | 27823 ft | 374 kts | 109° |
| 2026-04-24 13:56 | 59.27299 | -125.06256 | 27247 ft | 372 kts | 108° |
| 2026-04-24 13:56 | 59.26199 | -125.01689 | 26741 ft | 371 kts | 108° |
| 2026-04-24 13:56 | 59.25072 | -124.97149 | 26249 ft | 372 kts | 109° |
| 2026-04-24 13:57 | 59.23916 | -124.92631 | 25757 ft | 371 kts | 110° |
| 2026-04-24 13:57 | 59.22779 | -124.88118 | 25264 ft | 369 kts | 110° |
| 2026-04-24 13:57 | 59.21662 | -124.83607 | 24788 ft | 369 kts | 110° |
| 2026-04-24 13:57 | 59.20539 | -124.79086 | 24315 ft | 370 kts | 110° |
| 2026-04-24 13:58 | 59.19418 | -124.74632 | 23839 ft | 370 kts | 110° |
| 2026-04-24 13:58 | 59.18281 | -124.70141 | 23348 ft | 369 kts | 110° |
| 2026-04-24 13:58 | 59.17149 | -124.65650 | 22857 ft | 368 kts | 111° |
| 2026-04-24 13:58 | 59.16020 | -124.61164 | 22367 ft | 369 kts | 111° |
| 2026-04-24 13:59 | 59.14885 | -124.56684 | 21876 ft | 368 kts | 111° |
| 2026-04-24 13:59 | 59.13755 | -124.52219 | 21390 ft | 368 kts | 111° |
| 2026-04-24 13:59 | 59.12619 | -124.47749 | 20897 ft | 368 kts | 112° |
| 2026-04-24 13:59 | 59.11484 | -124.43290 | 20409 ft | 367 kts | 112° |
| 2026-04-24 14:00 | 59.10351 | -124.38844 | 19922 ft | 367 kts | 112° |
| 2026-04-24 14:00 | 59.09213 | -124.34393 | 19434 ft | 367 kts | 112° |
| 2026-04-24 14:00 | 59.08075 | -124.29957 | 18947 ft | 366 kts | 113° |
| 2026-04-24 14:00 | 59.06943 | -124.25533 | 18460 ft | 364 kts | 112° |
| 2026-04-24 14:01 | 59.05818 | -124.21147 | 17980 ft | 362 kts | 113° |
| 2026-04-24 14:01 | 59.04691 | -124.16774 | 17499 ft | 360 kts | 113° |
| 2026-04-24 14:01 | 59.03572 | -124.12460 | 17026 ft | 356 kts | 113° |
| 2026-04-24 14:01 | 59.02465 | -124.08172 | 16556 ft | 354 kts | 113° |
| 2026-04-24 14:02 | 59.01371 | -124.03914 | 16089 ft | 351 kts | 113° |
| 2026-04-24 14:02 | 59.00279 | -123.99700 | 15632 ft | 348 kts | 113° |
| 2026-04-24 14:02 | 58.99203 | -123.95581 | 15180 ft | 345 kts | 113° |
| 2026-04-24 14:02 | 58.98126 | -123.91450 | 14728 ft | 342 kts | 113° |
| 2026-04-24 14:03 | 58.97057 | -123.87344 | 14274 ft | 340 kts | 114° |
| 2026-04-24 14:03 | 58.95995 | -123.83285 | 13827 ft | 337 kts | 113° |
| 2026-04-24 14:03 | 58.94940 | -123.79255 | 13381 ft | 334 kts | 113° |
| 2026-04-24 14:03 | 58.93895 | -123.75263 | 12942 ft | 331 kts | 113° |
| 2026-04-24 14:04 | 58.92855 | -123.71315 | 12506 ft | 328 kts | 114° |
| 2026-04-24 14:04 | 58.91817 | -123.67397 | 12073 ft | 325 kts | 114° |
| 2026-04-24 14:04 | 58.90793 | -123.63513 | 11642 ft | 322 kts | 114° |
| 2026-04-24 14:04 | 58.89784 | -123.59674 | 11219 ft | 318 kts | 114° |
| 2026-04-24 14:05 | 58.88784 | -123.55886 | 10799 ft | 314 kts | 115° |
| 2026-04-24 14:05 | 58.87793 | -123.52165 | 10388 ft | 308 kts | 116° |
| 2026-04-24 14:05 | 58.86813 | -123.48534 | 9988 ft | 302 kts | 116° |
| 2026-04-24 14:05 | 58.85867 | -123.44946 | 9590 ft | 298 kts | 116° |
| 2026-04-24 14:06 | 58.84935 | -123.41402 | 9199 ft | 294 kts | 116° |
| 2026-04-24 14:06 | 58.83998 | -123.37904 | 8811 ft | 291 kts | 117° |
| 2026-04-24 14:06 | 58.83071 | -123.34442 | 8427 ft | 289 kts | 117° |
| 2026-04-24 14:06 | 58.82153 | -123.31007 | 8035 ft | 287 kts | 118° |
| 2026-04-24 14:07 | 58.81242 | -123.27607 | 7665 ft | 284 kts | 118° |
| 2026-04-24 14:07 | 58.80335 | -123.24232 | 7286 ft | 282 kts | 118° |
| 2026-04-24 14:07 | 58.79449 | -123.20926 | 6923 ft | 279 kts | 118° |
| 2026-04-24 14:07 | 58.78558 | -123.17615 | 6551 ft | 277 kts | 118° |
| 2026-04-24 14:08 | 58.77666 | -123.14291 | 6180 ft | 275 kts | 119° |
| 2026-04-24 14:08 | 58.76798 | -123.11079 | 5829 ft | 273 kts | 119° |
| 2026-04-24 14:08 | 58.75926 | -123.07853 | 5460 ft | 270 kts | 119° |
| 2026-04-24 14:08 | 58.75076 | -123.04713 | 5109 ft | 252 kts | 119° |
| 2026-04-24 14:09 | 58.74308 | -123.01842 | 4795 ft | 231 kts | 118° |
| 2026-04-24 14:09 | 58.73589 | -122.99138 | 4501 ft | 223 kts | 119° |
| 2026-04-24 14:09 | 58.73026 | -122.96383 | 4204 ft | 222 kts | 103° |
| 2026-04-24 14:09 | 58.72954 | -122.93430 | 3998 ft | 220 kts | 85° |
| 2026-04-24 14:10 | 58.73353 | -122.90604 | 4001 ft | 220 kts | 67° |
| 2026-04-24 14:10 | 58.74181 | -122.88117 | 3985 ft | 221 kts | 58° |
| 2026-04-24 14:10 | 58.74980 | -122.85569 | 3994 ft | 223 kts | 62° |
| 2026-04-24 14:10 | 58.75723 | -122.83106 | 3882 ft | 194 kts | 57° |
| 2026-04-24 14:11 | 58.76515 | -122.81090 | 3627 ft | 188 kts | 56° |
| 2026-04-24 14:11 | 58.77252 | -122.79034 | 3375 ft | 187 kts | 58° |
| 2026-04-24 14:11 | 58.78626 | -122.74976 | 2896 ft | 178 kts | 59° |
| 2026-04-24 14:12 | 58.79269 | -122.73111 | 2668 ft | 151 kts | 59° |
| 2026-04-24 14:12 | 58.79798 | -122.71540 | 2487 ft | 135 kts | 59° |
| 2026-04-24 14:12 | 58.80297 | -122.70075 | 2306 ft | 125 kts | 58° |
| 2026-04-24 14:12 | 58.80749 | -122.68745 | 2151 ft | 104 kts | 59° |
| 2026-04-24 14:13 | 58.81109 | -122.67693 | 2030 ft | 91 kts | 59° |
| 2026-04-24 14:13 | 58.81431 | -122.66734 | 1914 ft | 82 kts | 57° |
| 2026-04-24 14:13 | 58.81762 | -122.65799 | 1812 ft | 86 kts | 57° |
| 2026-04-24 14:13 | 58.82094 | -122.64820 | 1701 ft | 86 kts | 58° |
| 2026-04-24 14:14 | 58.82409 | -122.63872 | 1597 ft | 83 kts | 60° |
| 2026-04-24 14:14 | 58.82719 | -122.62941 | 1482 ft | 83 kts | 58° |
| 2026-04-24 14:14 | 58.83357 | -122.61071 | 1283 ft | 83 kts | 58° |
| 2026-04-24 14:15 | 58.83638 | -122.60235 | 1254 ft | 63 kts | 57° |
| 2026-04-24 14:15 | 58.83805 | -122.59746 | 1255 ft | 9 kts | 54° |
| 2026-04-24 14:15 | 58.83799 | -122.59568 | 1253 ft | 19 kts | 102° |
| 2026-04-24 14:15 | 58.83769 | -122.59317 | 1249 ft | 21 kts | 102° |
| 2026-04-24 14:16 | 58.83742 | -122.59056 | 1245 ft | 18 kts | 102° |
| 2026-04-24 14:16 | 58.83709 | -122.58767 | 1241 ft | 23 kts | 101° |
| 2026-04-24 14:16 | 58.83674 | -122.58452 | 1239 ft | 24 kts | 102° |
| 2026-04-24 14:17 | 58.83614 | -122.57896 | 1235 ft | 18 kts | 100° |
| 2026-04-24 14:17 | 58.83666 | -122.57758 | 1232 ft | 11 kts | 14° |
| 2026-04-24 14:17 | 58.83676 | -122.57754 | 1232 ft | 0 kts | 15° |
| 2026-04-24 14:18 | 58.83691 | -122.57748 | 1232 ft | 9 kts | 11° |
| 2026-04-24 14:18 | 58.83757 | -122.57806 | 1233 ft | 15 kts | 282° |
| 2026-04-24 14:18 | 58.83784 | -122.58010 | 1236 ft | 13 kts | 283° |
| 2026-04-24 14:18 | 58.83809 | -122.58148 | 1238 ft | 9 kts | 337° |
| 2026-04-24 14:19 | 58.83831 | -122.58197 | 1239 ft | 7 kts | 282° |
| 2026-04-24 14:19 | 58.83832 | -122.58206 | 1239 ft | 0 kts | 287° |